createdAt,value
2022-09-05T00:00:11.903Z,3.45
2022-09-05T00:02:39.288Z,3.51
2022-09-05T00:05:15.321Z,3.32
2022-09-05T00:07:59.597Z,3.52
2022-09-05T00:10:26.693Z,3.46
2022-09-05T00:13:06.822Z,3.34
2022-09-05T00:15:34.277Z,3.42
2022-09-05T00:23:47.105Z,3.42
2022-09-05T00:24:22.840Z,3.42
2022-09-05T00:24:25.377Z,3.35
2022-09-05T00:26:19.780Z,3.51
2022-09-05T00:28:46.170Z,3.34
2022-09-05T00:31:54.711Z,3.37
2022-09-05T00:33:58.950Z,3.89
2022-09-05T00:36:25.353Z,3.43
2022-09-05T00:38:51.748Z,3.41
2022-09-05T00:41:18.164Z,3.45
2022-09-05T00:43:44.552Z,3.42
2022-09-05T00:46:10.970Z,3.26
2022-09-05T00:48:37.439Z,3.15
2022-09-05T00:51:03.826Z,3.45
2022-09-05T00:53:30.234Z,3.71
2022-09-05T00:55:58.842Z,3.43
2022-09-05T00:58:25.478Z,3.40
2022-09-05T01:00:51.872Z,3.52
2022-09-05T01:03:18.273Z,3.46
2022-09-05T01:05:44.678Z,3.85
2022-09-05T01:08:11.101Z,3.56
2022-09-05T01:10:37.507Z,3.61
2022-09-05T01:13:03.870Z,3.58
2022-09-05T01:15:32.362Z,3.58
2022-09-05T01:17:59.484Z,3.61
2022-09-05T01:20:26.942Z,3.95
2022-09-05T01:22:56.357Z,3.94
2022-09-05T01:25:25.082Z,4.05
2022-09-05T01:29:14.128Z,3.76
2022-09-05T01:30:37.862Z,3.85
2022-09-05T01:33:06.128Z,4.12
2022-09-05T01:35:32.775Z,4.01
2022-09-05T01:37:59.174Z,4.21
2022-09-05T01:40:25.714Z,4.24
2022-09-05T01:42:52.175Z,4.89
2022-09-05T01:45:18.564Z,4.71
2022-09-05T01:47:44.943Z,4.58
2022-09-05T01:50:11.335Z,4.47
2022-09-05T01:52:38.837Z,4.38
2022-09-05T01:55:23.781Z,4.09
2022-09-05T01:57:50.239Z,4.01
2022-09-05T02:00:16.635Z,3.89
2022-09-05T02:02:50.797Z,3.90
2022-09-05T02:05:21.674Z,4.01
2022-09-05T02:08:03.811Z,3.97
2022-09-05T02:10:30.210Z,4.53
2022-09-05T02:13:02.363Z,4.29
2022-09-05T02:15:29.822Z,4.18
2022-09-05T02:17:56.231Z,4.05
2022-09-05T02:20:23.908Z,4.24
2022-09-05T02:22:50.616Z,4.11
2022-09-05T02:26:01.829Z,3.63
2022-09-05T02:28:05.569Z,3.84
2022-09-05T02:30:32.569Z,3.90
2022-09-05T02:32:58.982Z,4.35
2022-09-05T02:35:25.372Z,4.22
2022-09-05T02:41:26.157Z,4.01
2022-09-05T02:45:08.515Z,3.98
2022-09-05T02:45:14.819Z,3.92
2022-09-05T02:46:10.938Z,3.52
2022-09-05T02:48:37.429Z,3.88
2022-09-05T02:57:23.253Z,3.84
2022-09-05T02:57:35.921Z,3.76
2022-09-05T02:58:05.874Z,3.80
2022-09-05T02:59:35.985Z,3.70
2022-09-05T03:02:03.388Z,3.72
2022-09-05T03:04:49.524Z,3.94
2022-09-05T03:07:17.431Z,4.08
2022-09-05T03:09:43.818Z,4.03
2022-09-05T03:12:28.681Z,3.98
2022-09-05T03:14:56.221Z,4.00
2022-09-05T03:17:22.611Z,3.88
2022-09-05T03:19:49.010Z,4.00
2022-09-05T03:22:15.402Z,3.85
2022-09-05T03:24:41.786Z,3.66
2022-09-05T03:27:23.650Z,3.75
2022-09-05T03:29:58.444Z,3.87
2022-09-05T03:32:25.303Z,3.77
2022-09-05T03:34:51.666Z,3.69
2022-09-05T03:37:18.047Z,3.80
2022-09-05T03:39:44.484Z,3.87
2022-09-05T03:42:14.768Z,3.61
2022-09-05T03:44:41.519Z,3.37
2022-09-05T03:47:07.896Z,3.57
2022-09-05T03:54:22.935Z,3.61
2022-09-05T03:57:12.143Z,3.57
2022-09-05T03:57:23.884Z,3.42
2022-09-05T03:57:53.491Z,3.69
2022-09-05T04:00:22.219Z,3.92
2022-09-05T04:07:00.377Z,3.54
2022-09-05T04:08:19.485Z,3.48
2022-09-05T04:08:29.747Z,3.37
2022-09-05T04:10:59.317Z,3.57
2022-09-05T04:13:25.831Z,3.77
2022-09-05T04:15:54.627Z,3.85
2022-09-05T04:18:33.523Z,3.51
2022-09-05T04:21:00.474Z,3.76
2022-09-05T04:23:27.523Z,3.96
2022-09-05T04:26:09.261Z,4.00
2022-09-05T04:28:41.317Z,3.96
2022-09-05T04:31:10.517Z,3.92
2022-09-05T04:33:37.381Z,3.85
2022-09-05T04:36:03.841Z,4.01
2022-09-05T04:38:44.371Z,3.93
2022-09-05T04:41:10.761Z,3.93
2022-09-05T04:43:37.155Z,3.47
2022-09-05T04:46:03.540Z,3.69
2022-09-05T04:48:30.000Z,3.83
2022-09-05T04:50:56.637Z,3.97
2022-09-05T04:53:25.240Z,3.51
2022-09-05T04:55:51.631Z,3.89
2022-09-05T04:58:18.026Z,3.71
2022-09-05T05:06:05.377Z,3.91
2022-09-05T05:06:16.897Z,4.61
2022-09-05T05:09:05.976Z,4.74
2022-09-05T05:17:53.605Z,4.81
2022-09-05T05:18:12.954Z,4.42
2022-09-05T05:18:16.247Z,4.07
2022-09-05T05:19:59.437Z,4.12
2022-09-05T05:22:37.853Z,4.66
2022-09-05T05:25:04.270Z,4.35
2022-09-05T05:27:30.655Z,4.75
2022-09-05T05:29:57.053Z,4.27
2022-09-05T05:32:28.182Z,3.79
2022-09-05T05:35:09.819Z,3.97
2022-09-05T05:37:36.208Z,3.57
2022-09-05T05:40:02.648Z,4.08
2022-09-05T05:42:29.076Z,4.02
2022-09-05T05:44:55.470Z,3.96
2022-09-05T05:47:31.715Z,3.77
2022-09-05T05:49:58.857Z,3.77
2022-09-05T05:52:25.248Z,3.92
2022-09-05T05:54:51.650Z,4.13
2022-09-05T05:57:36.024Z,4.02
2022-09-05T06:00:02.430Z,3.97
2022-09-05T06:02:28.992Z,3.83
2022-09-05T06:04:55.467Z,3.39
2022-09-05T06:07:21.852Z,4.00
2022-09-05T06:14:50.739Z,4.31
2022-09-05T06:15:06.830Z,4.22
2022-09-05T06:15:23.043Z,4.45
2022-09-05T06:17:49.928Z,4.14
2022-09-05T06:22:07.381Z,4.46
2022-09-05T06:23:02.720Z,4.19
2022-09-05T06:25:29.094Z,4.23
2022-09-05T06:28:17.423Z,4.20
2022-09-05T06:30:41.877Z,3.78
2022-09-05T06:33:08.263Z,3.76
2022-09-05T06:35:34.680Z,3.68
2022-09-05T06:38:01.103Z,3.71
2022-09-05T06:40:31.907Z,4.09
2022-09-05T06:42:58.628Z,4.33
2022-09-05T06:45:28.292Z,4.37
2022-09-05T06:47:56.715Z,4.20
2022-09-05T06:50:26.756Z,4.00
2022-09-05T06:52:54.045Z,4.04
2022-09-05T06:55:20.441Z,3.95
2022-09-05T06:57:46.915Z,3.68
2022-09-05T07:00:18.169Z,3.91
2022-09-05T07:02:58.768Z,3.91
2022-09-05T07:05:38.939Z,3.76
2022-09-05T07:08:35.471Z,3.78
2022-09-05T07:10:58.230Z,3.73
2022-09-05T07:13:42.743Z,3.68
2022-09-05T07:16:11.436Z,3.94
2022-09-05T07:18:37.917Z,3.62
2022-09-05T07:21:16.402Z,3.48
2022-09-05T07:24:09.365Z,3.95
2022-09-05T07:26:52.126Z,4.60
2022-09-05T07:29:17.579Z,4.63
2022-09-05T07:31:44.089Z,4.71
2022-09-05T07:34:20.659Z,4.52
2022-09-05T07:36:47.938Z,4.66
2022-09-05T07:39:28.197Z,4.46
2022-09-05T07:41:55.376Z,4.61
2022-09-05T07:44:22.112Z,4.15
2022-09-05T07:46:48.701Z,4.25
2022-09-05T07:49:15.112Z,4.66
2022-09-05T07:56:56.083Z,5.01
2022-09-05T07:57:00.800Z,4.75
2022-09-05T07:57:30.384Z,4.58
2022-09-05T07:59:57.548Z,4.55
2022-09-05T08:02:23.934Z,4.53
2022-09-05T08:04:50.354Z,4.78
2022-09-05T08:07:46.405Z,4.83
2022-09-05T08:10:06.955Z,4.73
2022-09-05T08:13:22.369Z,5.06
2022-09-05T08:15:22.307Z,4.86
2022-09-05T08:17:50.114Z,5.09
2022-09-05T08:20:16.578Z,5.00
2022-09-05T08:22:42.978Z,5.52
2022-09-05T08:25:18.785Z,5.61
2022-09-05T08:27:45.171Z,5.14
2022-09-05T08:30:25.100Z,5.02
2022-09-05T08:32:53.429Z,5.53
2022-09-05T08:35:23.866Z,5.49
2022-09-05T08:37:50.258Z,5.85
2022-09-05T08:40:16.762Z,7.37
2022-09-05T08:42:52.750Z,5.46
2022-09-05T08:46:40.132Z,5.59
2022-09-05T08:48:15.985Z,5.48
2022-09-05T08:50:42.376Z,5.30
2022-09-05T08:53:26.899Z,5.20
2022-09-05T08:55:55.176Z,5.39
2022-09-05T08:58:21.586Z,5.46
2022-09-05T09:00:55.151Z,5.38
2022-09-05T09:03:25.734Z,4.79
2022-09-05T09:06:12.517Z,4.87
2022-09-05T09:08:38.813Z,4.67
2022-09-05T09:11:05.301Z,4.87
2022-09-05T09:13:31.689Z,4.89
2022-09-05T09:15:58.130Z,4.86
2022-09-05T09:18:24.687Z,4.74
2022-09-05T09:20:51.117Z,5.14
2022-09-05T09:23:32.079Z,4.98
2022-09-05T09:25:59.200Z,5.36
2022-09-05T09:28:49.385Z,5.09
2022-09-05T09:31:12.082Z,5.32
2022-09-05T09:33:38.527Z,7.16
2022-09-05T09:36:08.020Z,4.57
2022-09-05T09:38:34.652Z,4.98
2022-09-05T09:41:02.951Z,4.71
2022-09-05T09:43:29.627Z,5.26
2022-09-05T09:45:56.024Z,4.72
2022-09-05T09:48:22.464Z,4.73
2022-09-05T09:50:58.477Z,4.79
2022-09-05T09:53:26.196Z,5.45
2022-09-05T09:55:52.594Z,5.08
2022-09-05T09:58:19.043Z,5.05
2022-09-05T10:00:45.454Z,5.09
2022-09-05T10:05:40.129Z,4.95
2022-09-05T10:10:38.799Z,4.75
2022-09-05T10:10:50.598Z,5.00
2022-09-05T10:14:36.780Z,5.12
2022-09-05T10:17:03.765Z,5.07
2022-09-05T10:22:36.617Z,4.57
2022-09-05T10:25:18.650Z,5.18
2022-09-05T10:27:45.673Z,5.17
2022-09-05T10:30:12.118Z,4.98
2022-09-05T10:35:04.611Z,4.85
2022-09-05T10:35:25.363Z,4.97
2022-09-05T10:37:52.167Z,4.98
2022-09-05T10:40:18.701Z,5.12
2022-09-05T10:43:00.015Z,4.81
2022-09-05T10:45:33.402Z,4.75
2022-09-05T10:48:13.208Z,4.99
2022-09-05T10:50:40.311Z,5.08
2022-09-05T10:53:08.723Z,4.42
2022-09-05T10:55:35.111Z,4.44
2022-09-05T10:58:01.559Z,4.96
2022-09-05T11:02:24.441Z,4.76
2022-09-05T11:03:22.613Z,4.88
2022-09-05T11:05:49.311Z,4.70
2022-09-05T11:08:15.786Z,4.77
2022-09-05T11:10:42.217Z,4.87
2022-09-05T11:13:08.608Z,5.10
2022-09-05T11:15:35.090Z,5.09
2022-09-05T11:18:02.164Z,4.79
2022-09-05T11:20:34.573Z,4.69
2022-09-05T11:23:02.038Z,4.65
2022-09-05T11:25:39.863Z,4.74
2022-09-05T11:28:07.145Z,4.53
2022-09-05T11:30:38.088Z,4.72
2022-09-05T11:37:27.366Z,4.91
2022-09-05T11:39:50.488Z,5.11
2022-09-05T11:40:10.359Z,4.67
2022-09-05T11:41:25.149Z,5.45
2022-09-05T11:43:52.138Z,5.36
2022-09-05T11:46:30.055Z,5.64
2022-09-05T11:48:56.557Z,5.37
2022-09-05T11:51:33.506Z,5.45
2022-09-05T11:54:00.597Z,5.25
2022-09-05T11:56:28.811Z,5.68
2022-09-05T11:58:55.571Z,5.69
2022-09-05T12:01:42.161Z,5.64
2022-09-05T12:04:09.973Z,5.64
2022-09-05T12:06:47.823Z,6.99
2022-09-05T12:09:20.229Z,7.23
2022-09-05T12:11:49.799Z,5.24
2022-09-05T12:14:21.389Z,4.68
2022-09-05T12:16:52.085Z,4.31
2022-09-05T12:19:19.544Z,4.21
2022-09-05T12:21:46.479Z,5.12
2022-09-05T12:25:23.699Z,4.59
2022-09-05T12:27:40.932Z,5.12
2022-09-05T12:29:50.462Z,4.52
2022-09-05T12:33:52.319Z,4.50
2022-09-05T12:40:35.515Z,4.26
2022-09-05T12:41:37.435Z,3.51
2022-09-05T12:41:42.272Z,4.38
2022-09-05T12:44:39.059Z,3.56
2022-09-05T12:46:14.377Z,3.73
2022-09-05T12:48:50.932Z,3.56
2022-09-05T12:51:46.752Z,3.37
2022-09-05T12:54:03.802Z,3.94
2022-09-05T12:59:36.428Z,3.31
2022-09-05T13:03:01.951Z,3.26
2022-09-05T13:03:02.011Z,3.04
2022-09-05T13:05:01.223Z,3.15
2022-09-05T13:07:29.994Z,3.22
2022-09-05T13:13:00.986Z,3.25
2022-09-05T13:14:54.034Z,2.93
2022-09-05T13:15:29.706Z,3.14
2022-09-05T13:17:56.307Z,3.17
2022-09-05T13:20:22.704Z,2.99
2022-09-05T13:22:49.106Z,3.01
2022-09-05T13:25:15.549Z,3.32
2022-09-05T13:27:41.943Z,2.80
2022-09-05T13:31:56.328Z,2.74
2022-09-05T13:38:00.764Z,2.83
2022-09-05T13:38:16.165Z,3.16
2022-09-05T13:38:43.598Z,2.95
2022-09-05T13:41:27.666Z,2.98
2022-09-05T13:43:54.553Z,2.82
2022-09-05T13:46:27.101Z,2.99
2022-09-05T13:51:39.916Z,2.83
2022-09-05T13:54:06.303Z,2.73
2022-09-05T13:56:32.706Z,2.96
2022-09-05T13:58:59.103Z,3.06
2022-09-05T14:01:25.622Z,2.87
2022-09-05T14:03:52.210Z,3.10
2022-09-05T14:06:41.210Z,2.83
2022-09-05T14:11:51.452Z,2.68
2022-09-05T14:15:08.077Z,2.50
2022-09-05T14:19:50.588Z,2.75
2022-09-05T14:22:22.188Z,2.96
2022-09-05T14:24:55.726Z,2.80
2022-09-05T14:27:31.909Z,2.78
2022-09-05T14:30:06.639Z,2.81
2022-09-05T14:37:43.108Z,2.85
2022-09-05T14:37:44.898Z,2.65
2022-09-05T14:38:18.502Z,2.80
2022-09-05T14:40:45.301Z,2.90
2022-09-05T14:43:11.712Z,2.84
2022-09-05T14:45:38.120Z,3.03
2022-09-05T14:48:04.544Z,2.81
2022-09-05T14:50:30.939Z,2.68
2022-09-05T14:55:43.794Z,2.99
2022-09-05T15:02:57.900Z,2.93
2022-09-05T15:02:58.669Z,2.67
2022-09-05T15:06:32.914Z,2.87
2022-09-05T15:12:16.422Z,3.00
2022-09-05T15:12:21.743Z,2.82
2022-09-05T15:14:32.507Z,2.83
2022-09-05T15:16:58.970Z,2.78
2022-09-05T15:19:25.499Z,2.64
2022-09-05T15:21:51.946Z,3.19
2022-09-05T15:24:18.361Z,3.06
2022-09-05T15:26:44.782Z,3.33
2022-09-05T15:29:14.099Z,3.26
2022-09-05T15:31:40.970Z,2.95
2022-09-05T15:34:07.395Z,3.04
2022-09-05T15:36:33.782Z,3.08
2022-09-05T15:39:04.134Z,3.22
2022-09-05T15:41:43.137Z,5.30
2022-09-05T15:44:10.148Z,3.16
2022-09-05T15:46:36.606Z,3.09
2022-09-05T15:49:03.023Z,2.93
2022-09-05T15:51:29.408Z,2.87
2022-09-05T15:53:55.857Z,2.78
2022-09-05T15:56:25.264Z,3.20
2022-09-05T15:58:53.882Z,3.01
2022-09-05T16:01:48.546Z,2.99
2022-09-05T16:08:34.152Z,2.73
2022-09-05T16:10:37.464Z,2.99
2022-09-05T16:10:43.465Z,2.96
2022-09-05T16:12:27.830Z,2.84
2022-09-05T16:15:48.001Z,2.97
2022-09-05T16:23:12.870Z,2.81
2022-09-05T16:23:26.555Z,2.85
2022-09-05T16:23:45.008Z,2.88
2022-09-05T16:26:00.327Z,2.98
2022-09-05T16:28:26.790Z,2.85
2022-09-05T16:30:53.302Z,3.02
2022-09-05T16:33:19.813Z,3.70
2022-09-05T16:35:46.333Z,3.25
2022-09-05T16:38:12.767Z,4.10
2022-09-05T16:40:39.174Z,4.82
2022-09-05T16:43:05.623Z,3.03
2022-09-05T16:45:32.179Z,3.03
2022-09-05T16:47:58.720Z,3.29
2022-09-05T16:50:25.156Z,3.10
2022-09-05T16:53:00.938Z,3.02
2022-09-05T16:55:31.863Z,3.17
2022-09-05T16:57:58.294Z,3.46
2022-09-05T17:00:26.894Z,3.36
2022-09-05T17:02:53.296Z,3.37
2022-09-05T17:05:19.701Z,3.31
2022-09-05T17:07:46.088Z,3.45
2022-09-05T17:10:12.506Z,4.08
2022-09-05T17:12:38.921Z,4.00
2022-09-05T17:15:05.335Z,3.58
2022-09-05T17:18:19.410Z,3.64
2022-09-05T17:20:18.096Z,3.50
2022-09-05T17:23:44.431Z,3.53
2022-09-05T17:29:25.035Z,3.34
2022-09-05T17:29:30.725Z,3.31
2022-09-05T17:31:50.931Z,3.44
2022-09-05T17:33:50.063Z,3.35
2022-09-05T17:36:16.481Z,3.22
2022-09-05T17:38:42.854Z,3.02
2022-09-05T17:41:09.241Z,3.46
2022-09-05T17:43:35.649Z,3.59
2022-09-05T17:46:02.116Z,3.50
2022-09-05T17:48:30.639Z,3.51
2022-09-05T17:50:57.029Z,3.90
2022-09-05T17:53:26.820Z,3.58
2022-09-05T17:55:53.846Z,3.72
2022-09-05T17:58:20.265Z,3.67
2022-09-05T18:00:46.699Z,3.41
2022-09-05T18:03:13.134Z,3.46
2022-09-05T18:05:39.528Z,3.34
2022-09-05T18:08:05.917Z,3.46
2022-09-05T18:10:32.280Z,3.98
2022-09-05T18:13:13.486Z,3.69
2022-09-05T18:15:45.058Z,3.74
2022-09-05T18:21:12.577Z,3.59
2022-09-05T18:23:46.687Z,3.83
2022-09-05T18:26:21.252Z,3.63
2022-09-05T18:28:47.654Z,3.83
2022-09-05T18:31:14.039Z,3.67
2022-09-05T18:33:56.407Z,3.90
2022-09-05T18:36:25.472Z,4.07
2022-09-05T18:38:52.624Z,3.72
2022-09-05T18:41:19.106Z,3.97
2022-09-05T18:43:46.412Z,4.02
2022-09-05T18:46:31.920Z,3.76
2022-09-05T18:49:57.593Z,5.04
2022-09-05T18:51:49.132Z,5.08
2022-09-05T18:54:20.581Z,4.21
2022-09-05T18:57:26.467Z,4.24
2022-09-05T18:59:34.546Z,4.52
2022-09-05T19:02:01.118Z,4.73
2022-09-05T19:04:41.611Z,4.66
2022-09-05T19:07:10.451Z,4.93
2022-09-05T19:09:36.834Z,5.21
2022-09-05T19:12:16.231Z,4.71
2022-09-05T19:14:50.780Z,4.30
2022-09-05T19:17:17.218Z,3.70
2022-09-05T19:19:45.545Z,3.96
2022-09-05T19:23:08.519Z,3.88
2022-09-05T19:25:07.929Z,3.47
2022-09-05T19:28:29.262Z,3.86
2022-09-05T19:36:52.545Z,4.12
2022-09-05T19:36:56.794Z,3.81
2022-09-05T19:37:03.611Z,3.27
2022-09-05T19:39:23.192Z,3.83
2022-09-05T19:47:27.435Z,4.46
2022-09-05T19:47:33.799Z,4.25
2022-09-05T19:47:37.378Z,4.15
2022-09-05T19:49:45.467Z,4.34
2022-09-05T19:52:15.529Z,3.76
2022-09-05T19:54:41.917Z,3.70
2022-09-05T19:57:08.318Z,3.75
2022-09-05T19:59:34.731Z,3.87
2022-09-05T20:02:01.212Z,3.89
2022-09-05T20:04:27.755Z,3.57
2022-09-05T20:06:54.216Z,3.62
2022-09-05T20:09:20.603Z,3.79
2022-09-05T20:11:47.047Z,3.70
2022-09-05T20:14:16.738Z,3.53
2022-09-05T20:16:43.286Z,3.58
2022-09-05T20:19:09.680Z,3.91
2022-09-05T20:21:36.115Z,3.83
2022-09-05T20:24:02.546Z,3.55
2022-09-05T20:26:28.960Z,3.68
2022-09-05T20:28:55.378Z,3.34
2022-09-05T20:31:21.806Z,3.68
2022-09-05T20:33:48.236Z,3.78
2022-09-05T20:43:08.786Z,3.89
2022-09-05T20:43:24.162Z,3.72
2022-09-05T20:43:28.731Z,3.78
2022-09-05T20:44:37.395Z,3.50
2022-09-05T20:50:47.049Z,3.51
2022-09-05T20:54:17.182Z,3.49
2022-09-05T20:54:25.870Z,3.39
2022-09-05T20:55:40.334Z,3.66
2022-09-05T20:58:09.400Z,3.50
2022-09-05T21:00:36.047Z,3.40
2022-09-05T21:03:02.614Z,3.65
2022-09-05T21:05:29.075Z,3.47
2022-09-05T21:08:03.787Z,3.75
2022-09-05T21:10:33.801Z,3.60
2022-09-05T21:13:13.637Z,3.50
2022-09-05T21:15:52.928Z,3.68
2022-09-05T21:18:20.322Z,3.44
2022-09-05T21:20:46.733Z,3.71
2022-09-05T21:23:13.120Z,3.57
2022-09-05T21:25:44.214Z,3.50
2022-09-05T21:28:10.847Z,3.31
2022-09-05T21:30:37.223Z,3.40
2022-09-05T21:33:03.628Z,3.56
2022-09-05T21:35:34.346Z,3.36
2022-09-05T21:38:01.959Z,3.43
2022-09-05T21:40:28.373Z,3.59
2022-09-05T21:42:54.847Z,3.39
2022-09-05T21:47:43.655Z,3.75
2022-09-05T21:48:27.580Z,3.47
2022-09-05T21:50:54.001Z,3.17
2022-09-05T21:55:59.487Z,3.57
2022-09-05T21:59:22.087Z,3.61
2022-09-05T21:59:26.793Z,3.51
2022-09-05T22:01:52.780Z,3.72
2022-09-05T22:04:19.505Z,3.88
2022-09-05T22:06:45.887Z,4.01
2022-09-05T22:09:13.603Z,4.00
2022-09-05T22:11:40.483Z,4.13
2022-09-05T22:14:06.884Z,3.87
2022-09-05T22:16:33.311Z,3.62
2022-09-05T22:18:59.719Z,3.87
2022-09-05T22:21:32.800Z,3.66
2022-09-05T22:24:00.707Z,4.13
2022-09-05T22:26:27.109Z,3.92
2022-09-05T22:28:53.580Z,3.90
2022-09-05T22:31:20.025Z,3.99
2022-09-05T22:33:46.468Z,4.23
2022-09-05T22:36:17.723Z,3.79
2022-09-05T22:38:44.122Z,3.91
2022-09-05T22:41:10.539Z,3.82
2022-09-05T22:43:39.480Z,3.57
2022-09-05T22:46:06.130Z,3.36
2022-09-05T22:48:32.566Z,3.55
2022-09-05T22:50:58.963Z,3.62
2022-09-05T22:53:25.386Z,3.29
2022-09-05T22:55:51.815Z,3.85
2022-09-05T22:58:18.210Z,3.64
2022-09-05T23:00:44.663Z,3.54
2022-09-05T23:03:11.101Z,3.37
2022-09-05T23:05:37.529Z,3.54
2022-09-05T23:08:03.927Z,3.67
2022-09-05T23:10:30.317Z,3.84
2022-09-05T23:12:57.721Z,3.93
2022-09-05T23:15:24.126Z,3.86
2022-09-05T23:17:50.565Z,3.78
2022-09-05T23:20:16.970Z,3.72
2022-09-05T23:22:43.380Z,3.61
2022-09-05T23:25:09.826Z,3.57
2022-09-05T23:27:36.264Z,3.74
2022-09-05T23:30:02.679Z,3.75
2022-09-05T23:32:29.127Z,3.58
2022-09-05T23:34:55.504Z,3.47
2022-09-05T23:37:21.927Z,3.43
2022-09-05T23:39:48.392Z,3.72
2022-09-05T23:42:14.838Z,3.51
2022-09-05T23:44:41.238Z,3.57
2022-09-05T23:47:07.625Z,3.72
2022-09-05T23:49:34.046Z,3.59
2022-09-05T23:52:00.418Z,3.58
2022-09-05T23:54:26.826Z,3.47
2022-09-05T23:56:53.210Z,3.59
2022-09-05T23:59:19.608Z,3.74
